This is the latest recevied weather packets stored in our database for station/object EA7BW-10. If no packets are shown the sender has not sent any weather packets the latest 10 day(s).
| Time | Temp. | Humidity | Pressure | Rain* | Wind** | Luminosity | Snow |
|---|---|---|---|---|---|---|---|
| 1777576983 | 23.89° C | 43% | 1009.6 hPa | - | - | - | - |
| 1777575782 | 25° C | 42% | 1009.3 hPa | - | - | - | - |
| 1777574582 | 26.67° C | 41% | 1009.3 hPa | - | - | - | - |
| 1777573382 | 27.22° C | 40% | 1009.2 hPa | - | - | - | - |
| 1777572182 | 27.78° C | 39% | 1009.2 hPa | - | - | - | - |
| 1777570982 | 28.33° C | 39% | 1009.2 hPa | - | - | - | - |
| 1777569782 | 28.89° C | 38% | 1009.3 hPa | - | - | - | - |
| 1777568582 | 29.44° C | 38% | 1009.2 hPa | - | - | - | - |
| 1777567382 | 30.56° C | 37% | 1009.2 hPa | - | - | - | - |
| 1777566182 | 30° C | 38% | 1009.3 hPa | - | - | - | - |
| 1777564982 | 30.56° C | 38% | 1009.3 hPa | - | - | - | - |
| 1777563781 | 31.11° C | 38% | 1009.2 hPa | - | - | - | - |
| 1777562581 | 30.56° C | 39% | 1009.4 hPa | - | - | - | - |
| 1777561381 | 31.67° C | 38% | 1009.4 hPa | - | - | - | - |
| 1777560181 | 31.11° C | 39% | 1009.6 hPa | - | - | - | - |
| 1777558981 | 31.11° C | 40% | 1009.7 hPa | - | - | - | - |
| 1777557781 | 31.67° C | 39% | 1009.7 hPa | - | - | - | - |
| 1777556581 | 31.11° C | 41% | 1010 hPa | - | - | - | - |
| 1777555381 | 30.56° C | 42% | 1009.9 hPa | - | - | - | - |
| 1777554181 | 32.22° C | 40% | 1010 hPa | - | - | - | - |
| 1777552981 | 30° C | 43% | 1009.9 hPa | - | - | - | - |
| 1777551780 | 31.67° C | 41% | 1010.2 hPa | - | - | - | - |
| 1777550580 | 30° C | 44% | 1010.3 hPa | - | - | - | - |
| 1777549380 | 31.11° C | 43% | 1010.4 hPa | - | - | - | - |
| 1777548180 | 28.89° C | 46% | 1010.7 hPa | - | - | - | - |
* Rain since midnight (hover to see other rain measurements)
** Current wind speed in m/s (hover to see current wind gust speed)